sensor_id;sensor_type;location;lat;lon;timestamp;pressure;altitude;pressure_sealevel;temperature;humidity
70338;BME280;57757;53.198;19.646;2023-08-20T00:01:52;100450.98;;;22.20;55.07
70338;BME280;57757;53.198;19.646;2023-08-20T00:04:25;100448.21;;;22.20;55.33
70338;BME280;57757;53.198;19.646;2023-08-20T00:06:53;100449.81;;;22.17;55.36
70338;BME280;57757;53.198;19.646;2023-08-20T00:09:21;100446.88;;;22.16;55.48
70338;BME280;57757;53.198;19.646;2023-08-20T00:11:48;100446.80;;;22.15;55.63
70338;BME280;57757;53.198;19.646;2023-08-20T00:14:17;100448.64;;;22.13;55.59
70338;BME280;57757;53.198;19.646;2023-08-20T00:16:45;100452.56;;;22.11;55.67
70338;BME280;57757;53.198;19.646;2023-08-20T00:19:13;100453.16;;;22.07;55.73
70338;BME280;57757;53.198;19.646;2023-08-20T00:21:41;100456.09;;;22.03;55.92
70338;BME280;57757;53.198;19.646;2023-08-20T00:24:10;100450.00;;;22.01;55.90
70338;BME280;57757;53.198;19.646;2023-08-20T00:26:38;100445.80;;;21.98;56.05
70338;BME280;57757;53.198;19.646;2023-08-20T00:29:07;100445.39;;;21.96;56.24
70338;BME280;57757;53.198;19.646;2023-08-20T00:31:34;100443.17;;;21.95;56.26
70338;BME280;57757;53.198;19.646;2023-08-20T00:34:02;100441.96;;;21.95;56.29
70338;BME280;57757;53.198;19.646;2023-08-20T00:36:34;100444.69;;;21.93;56.25
70338;BME280;57757;53.198;19.646;2023-08-20T00:39:01;100441.23;;;21.92;56.29
70338;BME280;57757;53.198;19.646;2023-08-20T00:41:29;100435.10;;;21.91;56.51
70338;BME280;57757;53.198;19.646;2023-08-20T00:43:57;100435.50;;;21.90;56.63
70338;BME280;57757;53.198;19.646;2023-08-20T00:46:25;100432.05;;;21.89;56.55
70338;BME280;57757;53.198;19.646;2023-08-20T00:48:53;100430.02;;;21.87;56.72
70338;BME280;57757;53.198;19.646;2023-08-20T00:51:21;100429.55;;;21.86;56.91
70338;BME280;57757;53.198;19.646;2023-08-20T00:53:49;100432.45;;;21.85;56.94
70338;BME280;57757;53.198;19.646;2023-08-20T00:56:17;100428.17;;;21.83;56.93
70338;BME280;57757;53.198;19.646;2023-08-20T00:58:45;100427.70;;;21.82;56.93
70338;BME280;57757;53.198;19.646;2023-08-20T01:01:13;100430.93;;;21.81;57.15
70338;BME280;57757;53.198;19.646;2023-08-20T01:03:41;100432.09;;;21.80;57.11
70338;BME280;57757;53.198;19.646;2023-08-20T01:06:15;100434.25;;;21.79;57.26
70338;BME280;57757;53.198;19.646;2023-08-20T01:08:53;100435.73;;;21.79;57.30
70338;BME280;57757;53.198;19.646;2023-08-20T01:11:29;100433.90;;;21.77;57.28
70338;BME280;57757;53.198;19.646;2023-08-20T01:13:58;100435.22;;;21.76;57.44
70338;BME280;57757;53.198;19.646;2023-08-20T01:16:27;100436.55;;;21.74;57.44
70338;BME280;57757;53.198;19.646;2023-08-20T01:18:54;100435.05;;;21.73;57.53
70338;BME280;57757;53.198;19.646;2023-08-20T01:21:39;100437.05;;;21.72;57.58
70338;BME280;57757;53.198;19.646;2023-08-20T01:24:58;100440.20;;;21.73;57.76
70338;BME280;57757;53.198;19.646;2023-08-20T01:27:28;100446.66;;;21.71;57.86
70338;BME280;57757;53.198;19.646;2023-08-20T01:29:56;100447.67;;;21.69;57.86
70338;BME280;57757;53.198;19.646;2023-08-20T01:32:24;100448.85;;;21.68;57.95
70338;BME280;57757;53.198;19.646;2023-08-20T01:34:52;100445.73;;;21.66;58.09
70338;BME280;57757;53.198;19.646;2023-08-20T01:37:20;100444.00;;;21.66;58.07
70338;BME280;57757;53.198;19.646;2023-08-20T01:39:49;100449.40;;;21.65;57.99
70338;BME280;57757;53.198;19.646;2023-08-20T01:42:18;100452.30;;;21.63;58.15
70338;BME280;57757;53.198;19.646;2023-08-20T01:44:45;100451.79;;;21.63;58.27
70338;BME280;57757;53.198;19.646;2023-08-20T01:47:13;100452.02;;;21.63;58.25
70338;BME280;57757;53.198;19.646;2023-08-20T01:49:40;100452.86;;;21.60;58.31
70338;BME280;57757;53.198;19.646;2023-08-20T01:52:08;100459.09;;;21.60;58.45
70338;BME280;57757;53.198;19.646;2023-08-20T01:54:35;100459.33;;;21.59;58.39
70338;BME280;57757;53.198;19.646;2023-08-20T01:57:03;100461.48;;;21.58;58.51
70338;BME280;57757;53.198;19.646;2023-08-20T01:59:31;100469.88;;;21.57;58.60
70338;BME280;57757;53.198;19.646;2023-08-20T02:01:58;100468.39;;;21.56;58.75
70338;BME280;57757;53.198;19.646;2023-08-20T02:04:26;100469.89;;;21.54;58.65
70338;BME280;57757;53.198;19.646;2023-08-20T02:06:53;100474.25;;;21.53;58.92
70338;BME280;57757;53.198;19.646;2023-08-20T02:09:21;100468.77;;;21.50;58.87
70338;BME280;57757;53.198;19.646;2023-08-20T02:11:48;100473.45;;;21.49;58.97
70338;BME280;57757;53.198;19.646;2023-08-20T02:14:16;100472.65;;;21.47;58.98
70338;BME280;57757;53.198;19.646;2023-08-20T02:16:46;100474.16;;;21.45;59.21
70338;BME280;57757;53.198;19.646;2023-08-20T02:19:13;100470.70;;;21.44;59.19
70338;BME280;57757;53.198;19.646;2023-08-20T02:21:42;100468.84;;;21.43;59.19
70338;BME280;57757;53.198;19.646;2023-08-20T02:24:09;100468.92;;;21.41;59.29
70338;BME280;57757;53.198;19.646;2023-08-20T02:26:36;100469.64;;;21.41;59.20
70338;BME280;57757;53.198;19.646;2023-08-20T02:29:04;100471.98;;;21.41;59.44
70338;BME280;57757;53.198;19.646;2023-08-20T02:31:33;100471.00;;;21.39;59.38
70338;BME280;57757;53.198;19.646;2023-08-20T02:34:00;100466.83;;;21.38;59.49
70338;BME280;57757;53.198;19.646;2023-08-20T02:36:28;100467.23;;;21.38;59.65
70338;BME280;57757;53.198;19.646;2023-08-20T02:38:55;100466.00;;;21.38;59.59
70338;BME280;57757;53.198;19.646;2023-08-20T02:41:23;100463.29;;;21.36;59.74
70338;BME280;57757;53.198;19.646;2023-08-20T02:43:50;100461.64;;;21.34;59.68
70338;BME280;57757;53.198;19.646;2023-08-20T02:46:18;100458.41;;;21.31;59.88
70338;BME280;57757;53.198;19.646;2023-08-20T02:48:45;100460.50;;;21.29;59.82
70338;BME280;57757;53.198;19.646;2023-08-20T02:51:13;100462.04;;;21.28;59.90
70338;BME280;57757;53.198;19.646;2023-08-20T02:53:40;100461.65;;;21.25;59.88
70338;BME280;57757;53.198;19.646;2023-08-20T02:56:08;100462.66;;;21.23;60.09
70338;BME280;57757;53.198;19.646;2023-08-20T02:58:35;100455.96;;;21.20;60.03
70338;BME280;57757;53.198;19.646;2023-08-20T03:01:03;100456.45;;;21.18;60.10
70338;BME280;57757;53.198;19.646;2023-08-20T03:03:31;100453.56;;;21.16;60.15
70338;BME280;57757;53.198;19.646;2023-08-20T03:05:59;100454.27;;;21.13;60.16
70338;BME280;57757;53.198;19.646;2023-08-20T03:08:26;100455.27;;;21.12;60.26
70338;BME280;57757;53.198;19.646;2023-08-20T03:10:54;100453.36;;;21.11;60.38
70338;BME280;57757;53.198;19.646;2023-08-20T03:13:21;100450.61;;;21.09;60.49
70338;BME280;57757;53.198;19.646;2023-08-20T03:15:49;100448.59;;;21.08;60.42
70338;BME280;57757;53.198;19.646;2023-08-20T03:18:17;100452.20;;;21.07;60.55
70338;BME280;57757;53.198;19.646;2023-08-20T03:20:45;100451.75;;;21.05;60.59
70338;BME280;57757;53.198;19.646;2023-08-20T03:23:12;100453.96;;;21.04;60.54
70338;BME280;57757;53.198;19.646;2023-08-20T03:25:40;100453.20;;;21.02;60.84
70338;BME280;57757;53.198;19.646;2023-08-20T03:28:07;100450.98;;;21.01;60.82
70338;BME280;57757;53.198;19.646;2023-08-20T03:30:36;100452.84;;;20.99;61.06
70338;BME280;57757;53.198;19.646;2023-08-20T03:33:04;100449.40;;;20.97;61.03
70338;BME280;57757;53.198;19.646;2023-08-20T03:35:31;100447.59;;;20.96;61.12
70338;BME280;57757;53.198;19.646;2023-08-20T03:37:59;100448.72;;;20.94;61.08
70338;BME280;57757;53.198;19.646;2023-08-20T03:40:27;100450.77;;;20.92;61.08
70338;BME280;57757;53.198;19.646;2023-08-20T03:42:55;100448.64;;;20.90;61.10
70338;BME280;57757;53.198;19.646;2023-08-20T03:45:22;100448.08;;;20.88;61.27
70338;BME280;57757;53.198;19.646;2023-08-20T03:47:50;100448.14;;;20.87;61.36
70338;BME280;57757;53.198;19.646;2023-08-20T03:50:17;100447.69;;;20.85;61.30
70338;BME280;57757;53.198;19.646;2023-08-20T03:52:45;100449.55;;;20.84;61.34
70338;BME280;57757;53.198;19.646;2023-08-20T03:55:13;100448.54;;;20.83;61.43
70338;BME280;57757;53.198;19.646;2023-08-20T03:57:41;100447.72;;;20.82;61.45
70338;BME280;57757;53.198;19.646;2023-08-20T04:00:09;100448.10;;;20.82;61.40
70338;BME280;57757;53.198;19.646;2023-08-20T04:02:37;100445.96;;;20.82;61.56
70338;BME280;57757;53.198;19.646;2023-08-20T04:05:05;100452.13;;;20.82;61.54
70338;BME280;57757;53.198;19.646;2023-08-20T04:07:32;100451.52;;;20.83;61.65
70338;BME280;57757;53.198;19.646;2023-08-20T04:10:00;100449.89;;;20.84;61.63
70338;BME280;57757;53.198;19.646;2023-08-20T04:12:28;100449.06;;;20.86;61.81
70338;BME280;57757;53.198;19.646;2023-08-20T04:14:56;100448.94;;;20.88;61.77
70338;BME280;57757;53.198;19.646;2023-08-20T04:17:23;100450.56;;;20.90;61.86
70338;BME280;57757;53.198;19.646;2023-08-20T04:19:51;100454.45;;;20.93;61.92
70338;BME280;57757;53.198;19.646;2023-08-20T04:22:18;100453.38;;;20.96;61.96
70338;BME280;57757;53.198;19.646;2023-08-20T04:24:46;100458.70;;;20.99;61.93
70338;BME280;57757;53.198;19.646;2023-08-20T04:27:13;100459.11;;;21.01;61.88
70338;BME280;57757;53.198;19.646;2023-08-20T04:29:41;100456.44;;;21.04;61.90
70338;BME280;57757;53.198;19.646;2023-08-20T04:32:08;100459.39;;;21.08;61.87
70338;BME280;57757;53.198;19.646;2023-08-20T04:34:35;100456.56;;;21.10;62.06
70338;BME280;57757;53.198;19.646;2023-08-20T04:37:03;100459.83;;;21.15;61.89
70338;BME280;57757;53.198;19.646;2023-08-20T04:39:30;100460.96;;;21.19;62.02
70338;BME280;57757;53.198;19.646;2023-08-20T04:41:58;100462.95;;;21.24;62.01
70338;BME280;57757;53.198;19.646;2023-08-20T04:44:27;100467.05;;;21.29;62.10
70338;BME280;57757;53.198;19.646;2023-08-20T04:46:55;100463.51;;;21.35;62.16
70338;BME280;57757;53.198;19.646;2023-08-20T04:49:22;100465.09;;;21.40;62.16
70338;BME280;57757;53.198;19.646;2023-08-20T04:51:50;100462.77;;;21.47;62.27
70338;BME280;57757;53.198;19.646;2023-08-20T04:54:17;100466.19;;;21.52;62.26
70338;BME280;57757;53.198;19.646;2023-08-20T04:56:45;100467.56;;;21.55;62.13
70338;BME280;57757;53.198;19.646;2023-08-20T04:59:13;100466.23;;;21.59;62.21
70338;BME280;57757;53.198;19.646;2023-08-20T05:01:40;100469.25;;;21.64;62.30
70338;BME280;57757;53.198;19.646;2023-08-20T05:04:08;100473.27;;;21.70;62.38
70338;BME280;57757;53.198;19.646;2023-08-20T05:06:35;100471.26;;;21.77;62.33
70338;BME280;57757;53.198;19.646;2023-08-20T05:09:03;100472.55;;;21.84;62.42
70338;BME280;57757;53.198;19.646;2023-08-20T05:11:30;100469.21;;;21.92;62.38
70338;BME280;57757;53.198;19.646;2023-08-20T05:14:00;100467.36;;;21.99;62.39
70338;BME280;57757;53.198;19.646;2023-08-20T05:16:28;100472.50;;;22.06;62.29
70338;BME280;57757;53.198;19.646;2023-08-20T05:18:55;100474.94;;;22.15;62.39
70338;BME280;57757;53.198;19.646;2023-08-20T05:21:23;100478.23;;;22.24;62.53
70338;BME280;57757;53.198;19.646;2023-08-20T05:23:53;100481.39;;;22.32;62.62
70338;BME280;57757;53.198;19.646;2023-08-20T05:26:21;100480.13;;;22.40;62.51
70338;BME280;57757;53.198;19.646;2023-08-20T05:28:49;100479.77;;;22.48;62.57
70338;BME280;57757;53.198;19.646;2023-08-20T05:31:16;100479.76;;;22.54;62.59
70338;BME280;57757;53.198;19.646;2023-08-20T05:33:44;100482.44;;;22.61;62.54
70338;BME280;57757;53.198;19.646;2023-08-20T05:36:12;100480.57;;;22.68;62.59
70338;BME280;57757;53.198;19.646;2023-08-20T05:38:40;100485.00;;;22.76;62.68
70338;BME280;57757;53.198;19.646;2023-08-20T05:41:10;100484.33;;;22.83;62.73
70338;BME280;57757;53.198;19.646;2023-08-20T05:43:37;100487.54;;;22.90;62.58
70338;BME280;57757;53.198;19.646;2023-08-20T05:46:05;100487.55;;;22.97;62.47
70338;BME280;57757;53.198;19.646;2023-08-20T05:48:32;100492.88;;;23.05;62.41
70338;BME280;57757;53.198;19.646;2023-08-20T05:51:00;100493.70;;;23.13;62.39
70338;BME280;57757;53.198;19.646;2023-08-20T05:53:27;100496.17;;;23.23;62.54
70338;BME280;57757;53.198;19.646;2023-08-20T05:55:55;100495.02;;;23.34;62.40
70338;BME280;57757;53.198;19.646;2023-08-20T05:58:22;100493.50;;;23.44;62.43
70338;BME280;57757;53.198;19.646;2023-08-20T06:00:50;100497.30;;;23.50;62.21
70338;BME280;57757;53.198;19.646;2023-08-20T06:03:17;100495.70;;;23.57;62.21
70338;BME280;57757;53.198;19.646;2023-08-20T06:05:45;100497.91;;;23.66;62.23
70338;BME280;57757;53.198;19.646;2023-08-20T06:08:12;100498.60;;;23.76;62.22
70338;BME280;57757;53.198;19.646;2023-08-20T06:10:40;100502.46;;;23.86;62.18
70338;BME280;57757;53.198;19.646;2023-08-20T06:13:07;100502.41;;;23.94;62.05
70338;BME280;57757;53.198;19.646;2023-08-20T06:15:35;100506.75;;;24.05;62.20
70338;BME280;57757;53.198;19.646;2023-08-20T06:18:02;100510.25;;;24.15;62.10
70338;BME280;57757;53.198;19.646;2023-08-20T06:20:30;100510.64;;;24.22;62.01
70338;BME280;57757;53.198;19.646;2023-08-20T06:22:57;100509.15;;;24.30;62.01
70338;BME280;57757;53.198;19.646;2023-08-20T06:25:25;100508.92;;;24.40;61.88
70338;BME280;57757;53.198;19.646;2023-08-20T06:27:52;100508.52;;;24.50;61.84
70338;BME280;57757;53.198;19.646;2023-08-20T06:30:20;100507.59;;;24.60;61.53
70338;BME280;57757;53.198;19.646;2023-08-20T06:32:47;100510.31;;;24.70;61.58
70338;BME280;57757;53.198;19.646;2023-08-20T06:35:15;100512.15;;;24.81;61.47
70338;BME280;57757;53.198;19.646;2023-08-20T06:37:42;100517.80;;;24.89;61.37
70338;BME280;57757;53.198;19.646;2023-08-20T06:40:10;100518.13;;;24.96;61.17
70338;BME280;57757;53.198;19.646;2023-08-20T06:42:38;100520.86;;;25.04;60.96
70338;BME280;57757;53.198;19.646;2023-08-20T06:45:08;100518.83;;;25.14;61.18
70338;BME280;57757;53.198;19.646;2023-08-20T06:47:37;100522.27;;;25.29;61.12
70338;BME280;57757;53.198;19.646;2023-08-20T06:50:06;100524.66;;;25.44;61.12
70338;BME280;57757;53.198;19.646;2023-08-20T06:52:34;100524.40;;;25.63;60.99
70338;BME280;57757;53.198;19.646;2023-08-20T06:55:02;100526.77;;;25.80;60.83
70338;BME280;57757;53.198;19.646;2023-08-20T06:57:30;100529.07;;;25.91;60.67
70338;BME280;57757;53.198;19.646;2023-08-20T06:59:57;100534.33;;;26.02;60.64
70338;BME280;57757;53.198;19.646;2023-08-20T07:02:25;100535.90;;;26.11;60.48
70338;BME280;57757;53.198;19.646;2023-08-20T07:04:53;100539.01;;;26.14;60.26
70338;BME280;57757;53.198;19.646;2023-08-20T07:07:21;100536.19;;;26.14;59.99
70338;BME280;57757;53.198;19.646;2023-08-20T07:09:49;100534.19;;;26.12;59.85
70338;BME280;57757;53.198;19.646;2023-08-20T07:12:17;100532.73;;;26.15;59.86
70338;BME280;57757;53.198;19.646;2023-08-20T07:14:44;100534.51;;;26.24;60.02
70338;BME280;57757;53.198;19.646;2023-08-20T07:17:12;100533.99;;;26.37;60.05
70338;BME280;57757;53.198;19.646;2023-08-20T07:19:39;100534.77;;;26.51;59.97
70338;BME280;57757;53.198;19.646;2023-08-20T07:22:07;100536.13;;;26.64;59.93
70338;BME280;57757;53.198;19.646;2023-08-20T07:24:34;100534.05;;;26.74;59.86
70338;BME280;57757;53.198;19.646;2023-08-20T07:27:03;100528.41;;;26.81;59.58
70338;BME280;57757;53.198;19.646;2023-08-20T07:29:38;100526.25;;;26.90;59.49
70338;BME280;57757;53.198;19.646;2023-08-20T07:32:05;100522.67;;;27.00;59.26
70338;BME280;57757;53.198;19.646;2023-08-20T07:34:33;100524.39;;;27.09;59.20
70338;BME280;57757;53.198;19.646;2023-08-20T07:37:01;100526.31;;;27.16;59.01
70338;BME280;57757;53.198;19.646;2023-08-20T07:39:30;100530.59;;;27.26;59.00
70338;BME280;57757;53.198;19.646;2023-08-20T07:41:57;100531.02;;;27.37;58.93
70338;BME280;57757;53.198;19.646;2023-08-20T07:44:25;100532.00;;;27.47;58.60
70338;BME280;57757;53.198;19.646;2023-08-20T07:46:52;100534.73;;;27.58;58.61
70338;BME280;57757;53.198;19.646;2023-08-20T07:49:20;100536.79;;;27.67;58.36
70338;BME280;57757;53.198;19.646;2023-08-20T07:51:47;100540.83;;;27.76;58.31
70338;BME280;57757;53.198;19.646;2023-08-20T07:54:15;100543.88;;;27.89;58.24
70338;BME280;57757;53.198;19.646;2023-08-20T07:56:43;100544.27;;;28.03;58.04
70338;BME280;57757;53.198;19.646;2023-08-20T07:59:11;100542.00;;;28.14;57.75
70338;BME280;57757;53.198;19.646;2023-08-20T08:01:38;100542.84;;;28.27;57.59
70338;BME280;57757;53.198;19.646;2023-08-20T08:04:06;100540.98;;;28.31;57.25
70338;BME280;57757;53.198;19.646;2023-08-20T08:06:34;100540.87;;;28.36;57.18
70338;BME280;57757;53.198;19.646;2023-08-20T08:09:21;100537.84;;;28.46;56.93
70338;BME280;57757;53.198;19.646;2023-08-20T08:11:49;100540.27;;;28.58;56.93
70338;BME280;57757;53.198;19.646;2023-08-20T08:14:16;100538.70;;;28.73;56.86
70338;BME280;57757;53.198;19.646;2023-08-20T08:16:45;100540.11;;;28.88;56.78
70338;BME280;57757;53.198;19.646;2023-08-20T08:19:14;100533.27;;;29.04;56.49
70338;BME280;57757;53.198;19.646;2023-08-20T08:21:43;100534.40;;;29.17;56.18
70338;BME280;57757;53.198;19.646;2023-08-20T08:24:11;100535.19;;;29.27;55.89
70338;BME280;57757;53.198;19.646;2023-08-20T08:26:40;100530.16;;;29.36;55.87
70338;BME280;57757;53.198;19.646;2023-08-20T08:29:08;100529.56;;;29.50;55.49
70338;BME280;57757;53.198;19.646;2023-08-20T08:31:36;100530.57;;;29.65;55.58
70338;BME280;57757;53.198;19.646;2023-08-20T08:34:04;100533.77;;;29.83;55.24
70338;BME280;57757;53.198;19.646;2023-08-20T08:36:32;100537.57;;;29.92;54.79
70338;BME280;57757;53.198;19.646;2023-08-20T08:38:59;100532.42;;;30.01;54.72
70338;BME280;57757;53.198;19.646;2023-08-20T08:41:28;100530.36;;;30.14;54.83
70338;BME280;57757;53.198;19.646;2023-08-20T08:43:57;100527.73;;;30.29;54.54
70338;BME280;57757;53.198;19.646;2023-08-20T08:46:25;100528.27;;;30.44;54.30
70338;BME280;57757;53.198;19.646;2023-08-20T08:48:53;100524.61;;;30.57;54.05
70338;BME280;57757;53.198;19.646;2023-08-20T08:51:21;100524.61;;;30.71;53.78
70338;BME280;57757;53.198;19.646;2023-08-20T08:53:49;100520.61;;;30.90;53.47
70338;BME280;57757;53.198;19.646;2023-08-20T08:56:17;100521.99;;;31.03;53.17
70338;BME280;57757;53.198;19.646;2023-08-20T08:58:44;100528.15;;;31.20;52.93
70338;BME280;57757;53.198;19.646;2023-08-20T09:01:12;100527.73;;;31.22;52.30
70338;BME280;57757;53.198;19.646;2023-08-20T09:03:39;100530.37;;;31.26;51.99
70338;BME280;57757;53.198;19.646;2023-08-20T09:06:10;100526.86;;;31.37;51.85
70338;BME280;57757;53.198;19.646;2023-08-20T09:08:38;100527.54;;;31.56;51.90
70338;BME280;57757;53.198;19.646;2023-08-20T09:11:06;100526.55;;;31.69;51.41
70338;BME280;57757;53.198;19.646;2023-08-20T09:16:03;100522.75;;;31.93;51.20
70338;BME280;57757;53.198;19.646;2023-08-20T09:18:33;100519.73;;;32.00;50.87
70338;BME280;57757;53.198;19.646;2023-08-20T09:21:08;100520.59;;;32.14;51.05
70338;BME280;57757;53.198;19.646;2023-08-20T09:23:38;100515.05;;;32.33;50.76
70338;BME280;57757;53.198;19.646;2023-08-20T09:26:07;100519.48;;;32.53;50.44
70338;BME280;57757;53.198;19.646;2023-08-20T09:28:42;100518.55;;;32.58;49.78
70338;BME280;57757;53.198;19.646;2023-08-20T09:31:10;100519.14;;;32.58;49.52
70338;BME280;57757;53.198;19.646;2023-08-20T09:33:55;100522.69;;;32.55;49.39
70338;BME280;57757;53.198;19.646;2023-08-20T09:36:38;100519.21;;;32.54;49.32
70338;BME280;57757;53.198;19.646;2023-08-20T09:39:06;100518.48;;;32.64;49.04
70338;BME280;57757;53.198;19.646;2023-08-20T09:41:35;100518.11;;;32.66;48.88
70338;BME280;57757;53.198;19.646;2023-08-20T09:44:04;100518.27;;;32.76;48.78
70338;BME280;57757;53.198;19.646;2023-08-20T09:46:34;100514.12;;;32.83;48.75
70338;BME280;57757;53.198;19.646;2023-08-20T09:49:03;100511.40;;;33.00;48.50
70338;BME280;57757;53.198;19.646;2023-08-20T09:51:33;100512.58;;;33.19;48.13
70338;BME280;57757;53.198;19.646;2023-08-20T09:54:20;100511.02;;;33.40;48.00
70338;BME280;57757;53.198;19.646;2023-08-20T09:56:54;100508.57;;;33.78;48.08
70338;BME280;57757;53.198;19.646;2023-08-20T09:59:21;100510.63;;;34.04;47.50
70338;BME280;57757;53.198;19.646;2023-08-20T10:01:50;100508.48;;;34.05;47.02
70338;BME280;57757;53.198;19.646;2023-08-20T10:04:18;100509.81;;;34.14;47.02
70338;BME280;57757;53.198;19.646;2023-08-20T10:06:47;100511.87;;;34.13;46.52
70338;BME280;57757;53.198;19.646;2023-08-20T10:09:16;100512.27;;;34.10;46.21
70338;BME280;57757;53.198;19.646;2023-08-20T10:11:46;100506.98;;;34.00;46.10
70338;BME280;57757;53.198;19.646;2023-08-20T10:14:14;100507.49;;;34.03;46.03
70338;BME280;57757;53.198;19.646;2023-08-20T10:16:41;100504.23;;;34.09;46.03
70338;BME280;57757;53.198;19.646;2023-08-20T10:19:09;100498.08;;;34.29;46.17
70338;BME280;57757;53.198;19.646;2023-08-20T10:21:43;100504.30;;;34.68;46.14
70338;BME280;57757;53.198;19.646;2023-08-20T10:24:17;100502.94;;;35.06;45.55
70338;BME280;57757;53.198;19.646;2023-08-20T10:26:48;100499.31;;;35.25;44.95
70338;BME280;57757;53.198;19.646;2023-08-20T10:29:35;100500.47;;;35.46;44.85
70338;BME280;57757;53.198;19.646;2023-08-20T10:32:13;100501.48;;;35.76;44.90
70338;BME280;57757;53.198;19.646;2023-08-20T10:34:44;100502.92;;;35.98;44.39
70338;BME280;57757;53.198;19.646;2023-08-20T10:37:26;100503.46;;;35.90;43.63
70338;BME280;57757;53.198;19.646;2023-08-20T10:39:56;100505.59;;;35.66;43.40
70338;BME280;57757;53.198;19.646;2023-08-20T10:42:27;100498.23;;;35.51;43.45
70338;BME280;57757;53.198;19.646;2023-08-20T10:45:04;100498.21;;;35.65;43.66
70338;BME280;57757;53.198;19.646;2023-08-20T10:47:37;100495.59;;;35.85;43.38
70338;BME280;57757;53.198;19.646;2023-08-20T10:50:05;100496.00;;;35.96;43.00
70338;BME280;57757;53.198;19.646;2023-08-20T10:52:41;100494.87;;;36.03;42.75
70338;BME280;57757;53.198;19.646;2023-08-20T10:55:14;100488.86;;;36.19;42.70
70338;BME280;57757;53.198;19.646;2023-08-20T10:57:42;100489.13;;;36.36;42.50
70338;BME280;57757;53.198;19.646;2023-08-20T11:00:15;100488.31;;;36.38;42.24
70338;BME280;57757;53.198;19.646;2023-08-20T11:02:43;100490.21;;;36.58;42.25
70338;BME280;57757;53.198;19.646;2023-08-20T11:05:19;100490.00;;;36.72;41.90
70338;BME280;57757;53.198;19.646;2023-08-20T11:07:48;100489.35;;;36.74;41.51
70338;BME280;57757;53.198;19.646;2023-08-20T11:10:17;100484.88;;;36.87;41.54
70338;BME280;57757;53.198;19.646;2023-08-20T11:12:47;100489.30;;;37.08;41.25
70338;BME280;57757;53.198;19.646;2023-08-20T11:15:15;100486.99;;;37.02;40.51
70338;BME280;57757;53.198;19.646;2023-08-20T11:17:45;100486.63;;;36.70;40.02
70338;BME280;57757;53.198;19.646;2023-08-20T11:20:18;100484.44;;;36.11;39.84
70338;BME280;57757;53.198;19.646;2023-08-20T11:22:45;100487.05;;;35.60;40.02
70338;BME280;57757;53.198;19.646;2023-08-20T11:25:13;100484.04;;;35.37;40.21
70338;BME280;57757;53.198;19.646;2023-08-20T11:27:41;100480.50;;;35.38;40.30
70338;BME280;57757;53.198;19.646;2023-08-20T11:30:10;100481.99;;;35.63;40.40
70338;BME280;57757;53.198;19.646;2023-08-20T11:32:40;100481.30;;;36.04;40.44
70338;BME280;57757;53.198;19.646;2023-08-20T11:35:12;100481.88;;;36.62;40.29
70338;BME280;57757;53.198;19.646;2023-08-20T11:37:42;100479.63;;;37.14;39.60
70338;BME280;57757;53.198;19.646;2023-08-20T11:40:10;100480.80;;;37.36;39.10
70338;BME280;57757;53.198;19.646;2023-08-20T11:42:37;100481.49;;;37.31;38.91
70338;BME280;57757;53.198;19.646;2023-08-20T11:45:05;100480.13;;;37.25;38.77
70338;BME280;57757;53.198;19.646;2023-08-20T11:47:40;100477.96;;;37.13;38.34
70338;BME280;57757;53.198;19.646;2023-08-20T11:50:09;100476.15;;;37.11;38.40
70338;BME280;57757;53.198;19.646;2023-08-20T11:52:37;100475.92;;;37.03;38.25
70338;BME280;57757;53.198;19.646;2023-08-20T11:55:07;100473.64;;;37.16;38.25
70338;BME280;57757;53.198;19.646;2023-08-20T11:57:35;100474.14;;;37.11;37.78
70338;BME280;57757;53.198;19.646;2023-08-20T12:00:04;100471.80;;;37.13;37.85
70338;BME280;57757;53.198;19.646;2023-08-20T12:02:36;100473.06;;;37.36;37.50
70338;BME280;57757;53.198;19.646;2023-08-20T12:05:07;100474.27;;;37.82;37.60
70338;BME280;57757;53.198;19.646;2023-08-20T12:07:34;100473.13;;;38.27;37.20
70338;BME280;57757;53.198;19.646;2023-08-20T12:10:20;100474.11;;;38.62;37.08
70338;BME280;57757;53.198;19.646;2023-08-20T12:12:51;100466.33;;;38.95;36.78
70338;BME280;57757;53.198;19.646;2023-08-20T12:15:19;100466.48;;;39.32;36.53
70338;BME280;57757;53.198;19.646;2023-08-20T12:18:04;100462.55;;;39.73;36.41
70338;BME280;57757;53.198;19.646;2023-08-20T12:20:34;100463.57;;;40.01;35.79
70338;BME280;57757;53.198;19.646;2023-08-20T12:23:05;100458.98;;;39.91;35.28
70338;BME280;57757;53.198;19.646;2023-08-20T12:25:34;100455.55;;;39.52;35.13
70338;BME280;57757;53.198;19.646;2023-08-20T12:28:03;100456.71;;;39.15;35.10
70338;BME280;57757;53.198;19.646;2023-08-20T12:30:33;100452.20;;;38.89;35.16
70338;BME280;57757;53.198;19.646;2023-08-20T12:33:06;100457.50;;;39.07;35.34
70338;BME280;57757;53.198;19.646;2023-08-20T12:35:35;100458.92;;;39.06;35.00
70338;BME280;57757;53.198;19.646;2023-08-20T12:38:03;100458.80;;;38.74;34.51
70338;BME280;57757;53.198;19.646;2023-08-20T12:40:31;100455.56;;;38.29;34.51
70338;BME280;57757;53.198;19.646;2023-08-20T12:42:59;100453.70;;;38.03;34.70
70338;BME280;57757;53.198;19.646;2023-08-20T12:45:27;100456.86;;;37.85;34.78
70338;BME280;57757;53.198;19.646;2023-08-20T12:47:54;100453.11;;;37.57;34.62
70338;BME280;57757;53.198;19.646;2023-08-20T12:50:22;100453.17;;;37.19;34.38
70338;BME280;57757;53.198;19.646;2023-08-20T12:52:52;100452.63;;;36.79;34.35